sensor_id;sensor_type;location;lat;lon;timestamp;P1;durP1;ratioP1;P2;durP2;ratioP2
67528;SDS011;54366;51.980;5.856;2022-09-12T00:00:08;7.90;;;6.70;;
67528;SDS011;54366;51.980;5.856;2022-09-12T00:02:37;6.78;;;6.20;;
67528;SDS011;54366;51.980;5.856;2022-09-12T00:05:03;7.82;;;7.20;;
67528;SDS011;54366;51.980;5.856;2022-09-12T00:07:32;7.88;;;7.13;;
67528;SDS011;54366;51.980;5.856;2022-09-12T00:09:58;8.73;;;8.02;;
67528;SDS011;54366;51.980;5.856;2022-09-12T00:12:25;7.85;;;7.15;;
67528;SDS011;54366;51.980;5.856;2022-09-12T00:14:51;9.30;;;8.30;;
67528;SDS011;54366;51.980;5.856;2022-09-12T00:17:17;8.13;;;7.43;;
67528;SDS011;54366;51.980;5.856;2022-09-12T00:19:44;8.30;;;7.55;;
67528;SDS011;54366;51.980;5.856;2022-09-12T00:22:10;7.03;;;6.38;;
67528;SDS011;54366;51.980;5.856;2022-09-12T00:24:36;7.82;;;7.13;;
67528;SDS011;54366;51.980;5.856;2022-09-12T00:27:05;8.45;;;7.75;;
67528;SDS011;54366;51.980;5.856;2022-09-12T00:29:31;7.20;;;6.60;;
67528;SDS011;54366;51.980;5.856;2022-09-12T00:31:57;7.82;;;7.13;;
67528;SDS011;54366;51.980;5.856;2022-09-12T00:34:23;10.15;;;9.25;;
67528;SDS011;54366;51.980;5.856;2022-09-12T00:36:50;8.90;;;7.95;;
67528;SDS011;54366;51.980;5.856;2022-09-12T00:39:16;8.10;;;7.40;;
67528;SDS011;54366;51.980;5.856;2022-09-12T00:41:42;8.52;;;7.82;;
67528;SDS011;54366;51.980;5.856;2022-09-12T00:46:37;6.55;;;5.95;;
67528;SDS011;54366;51.980;5.856;2022-09-12T00:49:30;10.43;;;9.32;;
67528;SDS011;54366;51.980;5.856;2022-09-12T00:55:52;7.53;;;6.82;;
67528;SDS011;54366;51.980;5.856;2022-09-12T00:58:16;11.68;;;10.20;;
67528;SDS011;54366;51.980;5.856;2022-09-12T01:00:46;10.68;;;9.73;;
67528;SDS011;54366;51.980;5.856;2022-09-12T01:03:14;10.60;;;9.63;;
67528;SDS011;54366;51.980;5.856;2022-09-12T01:08:42;11.57;;;10.55;;
67528;SDS011;54366;51.980;5.856;2022-09-12T01:11:09;11.30;;;10.20;;
67528;SDS011;54366;51.980;5.856;2022-09-12T01:13:37;10.55;;;9.55;;
67528;SDS011;54366;51.980;5.856;2022-09-12T01:16:04;10.88;;;9.80;;
67528;SDS011;54366;51.980;5.856;2022-09-12T01:21:19;11.82;;;10.82;;
67528;SDS011;54366;51.980;5.856;2022-09-12T01:29:29;11.43;;;10.43;;
67528;SDS011;54366;51.980;5.856;2022-09-12T01:37:39;12.60;;;11.40;;
67528;SDS011;54366;51.980;5.856;2022-09-12T01:43:22;10.05;;;9.15;;
67528;SDS011;54366;51.980;5.856;2022-09-12T01:46:18;11.73;;;10.63;;
67528;SDS011;54366;51.980;5.856;2022-09-12T01:48:59;13.23;;;12.02;;
67528;SDS011;54366;51.980;5.856;2022-09-12T01:51:44;12.77;;;11.65;;
67528;SDS011;54366;51.980;5.856;2022-09-12T01:54:26;12.38;;;11.18;;
67528;SDS011;54366;51.980;5.856;2022-09-12T01:57:00;14.52;;;13.13;;
67528;SDS011;54366;51.980;5.856;2022-09-12T01:59:38;13.27;;;11.95;;
67528;SDS011;54366;51.980;5.856;2022-09-12T02:02:15;16.60;;;15.00;;
67528;SDS011;54366;51.980;5.856;2022-09-12T02:04:57;14.00;;;12.60;;
67528;SDS011;54366;51.980;5.856;2022-09-12T02:07:39;15.77;;;14.27;;
67528;SDS011;54366;51.980;5.856;2022-09-12T02:10:13;15.68;;;14.18;;
67528;SDS011;54366;51.980;5.856;2022-09-12T02:12:57;14.30;;;12.93;;
67528;SDS011;54366;51.980;5.856;2022-09-12T02:15:50;16.52;;;14.93;;
67528;SDS011;54366;51.980;5.856;2022-09-12T02:18:22;15.50;;;14.00;;
67528;SDS011;54366;51.980;5.856;2022-09-12T02:20:53;15.38;;;13.88;;
67528;SDS011;54366;51.980;5.856;2022-09-12T02:23:22;15.30;;;13.80;;
67528;SDS011;54366;51.980;5.856;2022-09-12T02:25:53;16.65;;;14.95;;
67528;SDS011;54366;51.980;5.856;2022-09-12T02:28:24;16.92;;;15.25;;
67528;SDS011;54366;51.980;5.856;2022-09-12T02:36:41;17.92;;;16.13;;
67528;SDS011;54366;51.980;5.856;2022-09-12T02:39:11;16.02;;;14.43;;
67528;SDS011;54366;51.980;5.856;2022-09-12T02:41:37;16.27;;;14.65;;
67528;SDS011;54366;51.980;5.856;2022-09-12T02:44:03;15.30;;;13.70;;
67528;SDS011;54366;51.980;5.856;2022-09-12T02:46:32;15.32;;;13.90;;
67528;SDS011;54366;51.980;5.856;2022-09-12T02:49:05;17.38;;;15.57;;
67528;SDS011;54366;51.980;5.856;2022-09-12T02:51:32;16.38;;;14.80;;
67528;SDS011;54366;51.980;5.856;2022-09-12T02:53:58;16.05;;;14.45;;
67528;SDS011;54366;51.980;5.856;2022-09-12T02:56:29;16.90;;;14.45;;
67528;SDS011;54366;51.980;5.856;2022-09-12T02:58:58;18.55;;;16.65;;
67528;SDS011;54366;51.980;5.856;2022-09-12T03:07:17;18.35;;;16.42;;
67528;SDS011;54366;51.980;5.856;2022-09-12T03:26:06;16.45;;;14.50;;
67528;SDS011;54366;51.980;5.856;2022-09-12T03:28:38;16.42;;;14.70;;
67528;SDS011;54366;51.980;5.856;2022-09-12T03:31:15;21.38;;;19.13;;
67528;SDS011;54366;51.980;5.856;2022-09-12T03:33:42;21.70;;;19.45;;
67528;SDS011;54366;51.980;5.856;2022-09-12T03:36:17;20.77;;;18.55;;
67528;SDS011;54366;51.980;5.856;2022-09-12T03:38:47;23.15;;;20.67;;
67528;SDS011;54366;51.980;5.856;2022-09-12T03:41:13;24.08;;;21.27;;
67528;SDS011;54366;51.980;5.856;2022-09-12T03:43:40;23.35;;;20.92;;
67528;SDS011;54366;51.980;5.856;2022-09-12T03:46:06;23.63;;;21.10;;
67528;SDS011;54366;51.980;5.856;2022-09-12T03:48:32;23.73;;;21.20;;
67528;SDS011;54366;51.980;5.856;2022-09-12T03:51:02;24.35;;;21.85;;
67528;SDS011;54366;51.980;5.856;2022-09-12T03:53:30;26.70;;;23.85;;
67528;SDS011;54366;51.980;5.856;2022-09-12T03:55:57;26.48;;;23.58;;
67528;SDS011;54366;51.980;5.856;2022-09-12T03:58:23;26.77;;;23.73;;
67528;SDS011;54366;51.980;5.856;2022-09-12T04:00:54;25.45;;;22.75;;
67528;SDS011;54366;51.980;5.856;2022-09-12T04:03:20;26.42;;;23.55;;
67528;SDS011;54366;51.980;5.856;2022-09-12T04:05:47;26.45;;;23.50;;
67528;SDS011;54366;51.980;5.856;2022-09-12T04:08:13;26.80;;;23.95;;
67528;SDS011;54366;51.980;5.856;2022-09-12T04:10:40;26.90;;;24.10;;
67528;SDS011;54366;51.980;5.856;2022-09-12T04:13:06;27.52;;;24.58;;
67528;SDS011;54366;51.980;5.856;2022-09-12T04:15:33;30.55;;;26.45;;
67528;SDS011;54366;51.980;5.856;2022-09-12T04:17:59;27.02;;;24.08;;
67528;SDS011;54366;51.980;5.856;2022-09-12T04:20:25;26.38;;;23.58;;
67528;SDS011;54366;51.980;5.856;2022-09-12T04:22:51;22.92;;;20.45;;
67528;SDS011;54366;51.980;5.856;2022-09-12T04:25:17;26.40;;;23.60;;
67528;SDS011;54366;51.980;5.856;2022-09-12T04:27:43;26.25;;;23.45;;
67528;SDS011;54366;51.980;5.856;2022-09-12T04:30:10;27.60;;;23.77;;
67528;SDS011;54366;51.980;5.856;2022-09-12T04:32:36;26.38;;;23.05;;
67528;SDS011;54366;51.980;5.856;2022-09-12T04:35:03;23.30;;;20.80;;
67528;SDS011;54366;51.980;5.856;2022-09-12T04:37:29;22.85;;;20.33;;
67528;SDS011;54366;51.980;5.856;2022-09-12T04:39:55;19.27;;;17.15;;
67528;SDS011;54366;51.980;5.856;2022-09-12T04:42:23;21.75;;;19.42;;
67528;SDS011;54366;51.980;5.856;2022-09-12T04:44:49;24.15;;;20.13;;
67528;SDS011;54366;51.980;5.856;2022-09-12T04:47:16;22.27;;;19.95;;
67528;SDS011;54366;51.980;5.856;2022-09-12T04:49:43;26.65;;;23.15;;
67528;SDS011;54366;51.980;5.856;2022-09-12T04:52:09;25.40;;;22.70;;
67528;SDS011;54366;51.980;5.856;2022-09-12T04:54:35;30.13;;;24.65;;
67528;SDS011;54366;51.980;5.856;2022-09-12T04:57:02;26.75;;;23.60;;
67528;SDS011;54366;51.980;5.856;2022-09-12T04:59:28;28.45;;;23.70;;
67528;SDS011;54366;51.980;5.856;2022-09-12T05:01:54;22.30;;;19.85;;
67528;SDS011;54366;51.980;5.856;2022-09-12T05:04:21;28.10;;;23.63;;
67528;SDS011;54366;51.980;5.856;2022-09-12T05:06:47;23.02;;;20.48;;
67528;SDS011;54366;51.980;5.856;2022-09-12T05:09:14;24.55;;;21.00;;
67528;SDS011;54366;51.980;5.856;2022-09-12T05:11:41;23.25;;;19.90;;
67528;SDS011;54366;51.980;5.856;2022-09-12T05:14:09;26.17;;;21.10;;
67528;SDS011;54366;51.980;5.856;2022-09-12T05:16:36;24.90;;;20.75;;
67528;SDS011;54366;51.980;5.856;2022-09-12T05:19:02;28.58;;;23.60;;
67528;SDS011;54366;51.980;5.856;2022-09-12T05:21:29;28.05;;;22.70;;
67528;SDS011;54366;51.980;5.856;2022-09-12T05:23:56;29.02;;;24.80;;
67528;SDS011;54366;51.980;5.856;2022-09-12T05:26:26;27.50;;;23.95;;
67528;SDS011;54366;51.980;5.856;2022-09-12T05:28:52;28.88;;;23.65;;
67528;SDS011;54366;51.980;5.856;2022-09-12T05:31:28;27.25;;;23.85;;
67528;SDS011;54366;51.980;5.856;2022-09-12T05:33:55;25.25;;;21.15;;
67528;SDS011;54366;51.980;5.856;2022-09-12T05:36:26;27.00;;;21.77;;
67528;SDS011;54366;51.980;5.856;2022-09-12T05:38:57;28.60;;;23.15;;
67528;SDS011;54366;51.980;5.856;2022-09-12T05:41:25;28.35;;;22.77;;
67528;SDS011;54366;51.980;5.856;2022-09-12T05:43:54;30.27;;;24.80;;
67528;SDS011;54366;51.980;5.856;2022-09-12T05:46:23;30.40;;;24.42;;
67528;SDS011;54366;51.980;5.856;2022-09-12T05:48:51;31.58;;;25.35;;
67528;SDS011;54366;51.980;5.856;2022-09-12T05:53:52;30.17;;;24.92;;
67528;SDS011;54366;51.980;5.856;2022-09-12T05:56:24;27.98;;;23.48;;
67528;SDS011;54366;51.980;5.856;2022-09-12T05:58:58;27.20;;;21.92;;
67528;SDS011;54366;51.980;5.856;2022-09-12T06:01:27;31.67;;;25.55;;
67528;SDS011;54366;51.980;5.856;2022-09-12T06:03:54;34.22;;;25.25;;
67528;SDS011;54366;51.980;5.856;2022-09-12T06:06:23;26.55;;;21.58;;
67528;SDS011;54366;51.980;5.856;2022-09-12T06:08:50;28.15;;;23.73;;
67528;SDS011;54366;51.980;5.856;2022-09-12T06:11:19;27.48;;;22.33;;
67528;SDS011;54366;51.980;5.856;2022-09-12T06:13:47;29.90;;;23.70;;
67528;SDS011;54366;51.980;5.856;2022-09-12T06:16:19;29.63;;;24.63;;
67528;SDS011;54366;51.980;5.856;2022-09-12T06:18:47;29.25;;;23.48;;
67528;SDS011;54366;51.980;5.856;2022-09-12T06:21:14;29.75;;;24.02;;
67528;SDS011;54366;51.980;5.856;2022-09-12T06:23:41;33.05;;;25.67;;
67528;SDS011;54366;51.980;5.856;2022-09-12T06:26:08;34.88;;;25.83;;
67528;SDS011;54366;51.980;5.856;2022-09-12T06:28:36;33.75;;;26.48;;
67528;SDS011;54366;51.980;5.856;2022-09-12T06:31:05;34.40;;;26.52;;
67528;SDS011;54366;51.980;5.856;2022-09-12T06:33:34;37.53;;;27.13;;
67528;SDS011;54366;51.980;5.856;2022-09-12T06:36:04;31.38;;;23.75;;
67528;SDS011;54366;51.980;5.856;2022-09-12T06:38:32;30.63;;;25.00;;
67528;SDS011;54366;51.980;5.856;2022-09-12T06:40:58;32.88;;;25.10;;
67528;SDS011;54366;51.980;5.856;2022-09-12T06:43:25;34.13;;;26.02;;
67528;SDS011;54366;51.980;5.856;2022-09-12T06:45:53;35.83;;;26.42;;
67528;SDS011;54366;51.980;5.856;2022-09-12T06:48:19;35.63;;;25.48;;
67528;SDS011;54366;51.980;5.856;2022-09-12T06:53:22;38.92;;;29.15;;
67528;SDS011;54366;51.980;5.856;2022-09-12T06:55:55;37.40;;;28.05;;
67528;SDS011;54366;51.980;5.856;2022-09-12T06:58:23;37.35;;;28.33;;
67528;SDS011;54366;51.980;5.856;2022-09-12T07:00:59;40.90;;;29.85;;
67528;SDS011;54366;51.980;5.856;2022-09-12T07:03:31;41.00;;;29.23;;
67528;SDS011;54366;51.980;5.856;2022-09-12T07:06:04;39.17;;;28.40;;
67528;SDS011;54366;51.980;5.856;2022-09-12T07:08:33;44.38;;;31.30;;
67528;SDS011;54366;51.980;5.856;2022-09-12T07:13:48;40.28;;;29.55;;
67528;SDS011;54366;51.980;5.856;2022-09-12T07:16:19;41.55;;;30.92;;
67528;SDS011;54366;51.980;5.856;2022-09-12T07:18:49;41.63;;;31.35;;
67528;SDS011;54366;51.980;5.856;2022-09-12T07:21:16;37.92;;;28.42;;
67528;SDS011;54366;51.980;5.856;2022-09-12T07:23:43;35.88;;;25.75;;
67528;SDS011;54366;51.980;5.856;2022-09-12T07:26:10;41.83;;;29.73;;
67528;SDS011;54366;51.980;5.856;2022-09-12T07:28:37;41.78;;;30.73;;
67528;SDS011;54366;51.980;5.856;2022-09-12T07:31:05;42.55;;;30.85;;
67528;SDS011;54366;51.980;5.856;2022-09-12T07:33:33;42.13;;;30.85;;
67528;SDS011;54366;51.980;5.856;2022-09-12T07:36:01;40.50;;;29.60;;
67528;SDS011;54366;51.980;5.856;2022-09-12T07:38:28;43.95;;;32.05;;
67528;SDS011;54366;51.980;5.856;2022-09-12T07:40:55;41.00;;;31.05;;
67528;SDS011;54366;51.980;5.856;2022-09-12T07:43:22;37.88;;;27.92;;
67528;SDS011;54366;51.980;5.856;2022-09-12T07:45:53;48.50;;;35.95;;
67528;SDS011;54366;51.980;5.856;2022-09-12T07:48:20;44.03;;;33.17;;
67528;SDS011;54366;51.980;5.856;2022-09-12T07:50:46;42.20;;;31.92;;
67528;SDS011;54366;51.980;5.856;2022-09-12T07:53:15;42.15;;;30.42;;
67528;SDS011;54366;51.980;5.856;2022-09-12T07:55:41;35.38;;;27.30;;
67528;SDS011;54366;51.980;5.856;2022-09-12T07:58:07;43.00;;;32.53;;
67528;SDS011;54366;51.980;5.856;2022-09-12T08:00:33;38.83;;;30.73;;
67528;SDS011;54366;51.980;5.856;2022-09-12T08:03:02;40.67;;;31.42;;
67528;SDS011;54366;51.980;5.856;2022-09-12T08:05:29;41.33;;;31.60;;
67528;SDS011;54366;51.980;5.856;2022-09-12T08:07:55;36.90;;;28.90;;
67528;SDS011;54366;51.980;5.856;2022-09-12T08:10:21;40.53;;;31.27;;
67528;SDS011;54366;51.980;5.856;2022-09-12T08:12:47;44.20;;;32.88;;
67528;SDS011;54366;51.980;5.856;2022-09-12T08:15:15;39.95;;;31.75;;
67528;SDS011;54366;51.980;5.856;2022-09-12T08:17:42;40.78;;;32.28;;
67528;SDS011;54366;51.980;5.856;2022-09-12T08:20:08;37.47;;;29.50;;
67528;SDS011;54366;51.980;5.856;2022-09-12T08:22:34;38.28;;;30.38;;
67528;SDS011;54366;51.980;5.856;2022-09-12T08:25:02;48.88;;;34.95;;
67528;SDS011;54366;51.980;5.856;2022-09-12T08:27:29;44.17;;;33.20;;
67528;SDS011;54366;51.980;5.856;2022-09-12T08:29:55;38.67;;;29.80;;
67528;SDS011;54366;51.980;5.856;2022-09-12T08:32:21;36.03;;;29.23;;
67528;SDS011;54366;51.980;5.856;2022-09-12T08:34:47;37.15;;;27.77;;
67528;SDS011;54366;51.980;5.856;2022-09-12T08:37:13;36.95;;;28.88;;
67528;SDS011;54366;51.980;5.856;2022-09-12T08:39:40;35.30;;;28.02;;
67528;SDS011;54366;51.980;5.856;2022-09-12T08:42:08;34.08;;;26.00;;
67528;SDS011;54366;51.980;5.856;2022-09-12T08:44:47;42.10;;;33.25;;
67528;SDS011;54366;51.980;5.856;2022-09-12T08:47:26;36.33;;;28.88;;
67528;SDS011;54366;51.980;5.856;2022-09-12T08:55:26;39.53;;;30.23;;
67528;SDS011;54366;51.980;5.856;2022-09-12T08:57:53;34.47;;;27.95;;
67528;SDS011;54366;51.980;5.856;2022-09-12T09:00:20;30.40;;;24.75;;
67528;SDS011;54366;51.980;5.856;2022-09-12T09:03:11;28.30;;;23.45;;
67528;SDS011;54366;51.980;5.856;2022-09-12T09:11:29;29.50;;;24.55;;
67528;SDS011;54366;51.980;5.856;2022-09-12T09:19:55;27.63;;;21.65;;
67528;SDS011;54366;51.980;5.856;2022-09-12T09:22:39;26.60;;;20.80;;
67528;SDS011;54366;51.980;5.856;2022-09-12T09:25:19;25.77;;;22.05;;
67528;SDS011;54366;51.980;5.856;2022-09-12T09:27:50;19.63;;;17.55;;
67528;SDS011;54366;51.980;5.856;2022-09-12T09:30:23;19.98;;;16.92;;
67528;SDS011;54366;51.980;5.856;2022-09-12T09:32:51;18.83;;;15.93;;
67528;SDS011;54366;51.980;5.856;2022-09-12T09:38:12;15.68;;;13.95;;
67528;SDS011;54366;51.980;5.856;2022-09-12T09:43:25;14.43;;;11.77;;
67528;SDS011;54366;51.980;5.856;2022-09-12T09:45:55;15.85;;;14.07;;
67528;SDS011;54366;51.980;5.856;2022-09-12T09:48:24;16.20;;;13.73;;
67528;SDS011;54366;51.980;5.856;2022-09-12T09:56:11;13.75;;;11.18;;
67528;SDS011;54366;51.980;5.856;2022-09-12T09:59:07;12.07;;;9.95;;
67528;SDS011;54366;51.980;5.856;2022-09-12T10:01:58;10.27;;;9.25;;
67528;SDS011;54366;51.980;5.856;2022-09-12T10:04:54;9.60;;;8.60;;
67528;SDS011;54366;51.980;5.856;2022-09-12T10:07:22;10.35;;;9.23;;
67528;SDS011;54366;51.980;5.856;2022-09-12T10:10:03;9.88;;;8.90;;
67528;SDS011;54366;51.980;5.856;2022-09-12T10:12:43;8.23;;;7.30;;
67528;SDS011;54366;51.980;5.856;2022-09-12T10:15:19;9.38;;;8.48;;
67528;SDS011;54366;51.980;5.856;2022-09-12T10:17:50;8.35;;;7.55;;
67528;SDS011;54366;51.980;5.856;2022-09-12T10:23:19;11.00;;;9.07;;
67528;SDS011;54366;51.980;5.856;2022-09-12T10:25:58;9.52;;;8.52;;
67528;SDS011;54366;51.980;5.856;2022-09-12T10:28:31;9.18;;;8.38;;
67528;SDS011;54366;51.980;5.856;2022-09-12T10:31:00;10.45;;;9.35;;
67528;SDS011;54366;51.980;5.856;2022-09-12T10:33:27;9.77;;;8.88;;
67528;SDS011;54366;51.980;5.856;2022-09-12T10:35:54;8.85;;;7.90;;
67528;SDS011;54366;51.980;5.856;2022-09-12T10:38:22;8.98;;;8.07;;
67528;SDS011;54366;51.980;5.856;2022-09-12T10:48:45;9.55;;;7.90;;
67528;SDS011;54366;51.980;5.856;2022-09-12T10:53:54;8.95;;;8.13;;
67528;SDS011;54366;51.980;5.856;2022-09-12T10:56:27;8.88;;;7.03;;
67528;SDS011;54366;51.980;5.856;2022-09-12T11:34:35;5.93;;;5.43;;
67528;SDS011;54366;51.980;5.856;2022-09-12T11:39:52;4.22;;;3.83;;
67528;SDS011;54366;51.980;5.856;2022-09-12T11:42:22;4.63;;;4.22;;
67528;SDS011;54366;51.980;5.856;2022-09-12T11:47:54;6.43;;;5.82;;
67528;SDS011;54366;51.980;5.856;2022-09-12T11:50:26;6.03;;;4.47;;
67528;SDS011;54366;51.980;5.856;2022-09-12T11:52:57;4.18;;;3.75;;
67528;SDS011;54366;51.980;5.856;2022-09-12T11:55:56;4.82;;;4.43;;
67528;SDS011;54366;51.980;5.856;2022-09-12T11:58:30;4.50;;;4.10;;
67528;SDS011;54366;51.980;5.856;2022-09-12T12:01:09;4.57;;;4.10;;
67528;SDS011;54366;51.980;5.856;2022-09-12T12:03:43;4.82;;;3.50;;
67528;SDS011;54366;51.980;5.856;2022-09-12T12:06:23;3.20;;;3.00;;
67528;SDS011;54366;51.980;5.856;2022-09-12T12:08:53;2.92;;;2.60;;
67528;SDS011;54366;51.980;5.856;2022-09-12T12:11:36;3.38;;;2.92;;
67528;SDS011;54366;51.980;5.856;2022-09-12T12:14:12;3.88;;;3.58;;
67528;SDS011;54366;51.980;5.856;2022-09-12T12:16:44;3.88;;;3.47;;
67528;SDS011;54366;51.980;5.856;2022-09-12T12:21:41;4.25;;;3.17;;
67528;SDS011;54366;51.980;5.856;2022-09-12T12:24:14;2.92;;;2.58;;
67528;SDS011;54366;51.980;5.856;2022-09-12T12:26:54;3.45;;;3.15;;
67528;SDS011;54366;51.980;5.856;2022-09-12T12:34:38;4.80;;;3.28;;
67528;SDS011;54366;51.980;5.856;2022-09-12T12:44:57;3.85;;;3.55;;
67528;SDS011;54366;51.980;5.856;2022-09-12T12:47:27;4.20;;;3.80;;
67528;SDS011;54366;51.980;5.856;2022-09-12T12:49:58;4.53;;;4.10;;
67528;SDS011;54366;51.980;5.856;2022-09-12T12:52:38;4.53;;;4.07;;
67528;SDS011;54366;51.980;5.856;2022-09-12T12:55:24;3.65;;;3.35;;
67528;SDS011;54366;51.980;5.856;2022-09-12T12:57:56;3.97;;;3.70;;
67528;SDS011;54366;51.980;5.856;2022-09-12T13:00:27;3.28;;;2.97;;
67528;SDS011;54366;51.980;5.856;2022-09-12T13:05:38;2.90;;;2.70;;
67528;SDS011;54366;51.980;5.856;2022-09-12T13:16:10;3.30;;;3.00;;
67528;SDS011;54366;51.980;5.856;2022-09-12T13:18:53;2.55;;;2.30;;
67528;SDS011;54366;51.980;5.856;2022-09-12T13:21:19;3.20;;;2.90;;
67528;SDS011;54366;51.980;5.856;2022-09-12T13:24:00;3.80;;;3.00;;
67528;SDS011;54366;51.980;5.856;2022-09-12T13:26:32;3.00;;;2.80;;
67528;SDS011;54366;51.980;5.856;2022-09-12T13:29:19;2.58;;;2.38;;
67528;SDS011;54366;51.980;5.856;2022-09-12T13:31:53;3.55;;;3.25;;
67528;SDS011;54366;51.980;5.856;2022-09-12T13:34:25;3.15;;;2.85;;
67528;SDS011;54366;51.980;5.856;2022-09-12T13:47:35;2.63;;;2.42;;
67528;SDS011;54366;51.980;5.856;2022-09-12T13:50:07;3.28;;;2.78;;
67528;SDS011;54366;51.980;5.856;2022-09-12T13:52:49;3.15;;;2.95;;
67528;SDS011;54366;51.980;5.856;2022-09-12T13:55:31;3.67;;;3.38;;
67528;SDS011;54366;51.980;5.856;2022-09-12T13:58:01;3.28;;;3.08;;
67528;SDS011;54366;51.980;5.856;2022-09-12T14:00:32;3.70;;;3.40;;
67528;SDS011;54366;51.980;5.856;2022-09-12T14:02:59;3.00;;;2.63;;
67528;SDS011;54366;51.980;5.856;2022-09-12T14:05:50;2.72;;;2.53;;
67528;SDS011;54366;51.980;5.856;2022-09-12T14:08:21;2.80;;;2.60;;
67528;SDS011;54366;51.980;5.856;2022-09-12T14:10:49;2.17;;;1.98;;
67528;SDS011;54366;51.980;5.856;2022-09-12T14:13:17;2.92;;;2.70;;
67528;SDS011;54366;51.980;5.856;2022-09-12T14:15:46;3.05;;;2.63;;
67528;SDS011;54366;51.980;5.856;2022-09-12T14:18:29;3.03;;;2.63;;
67528;SDS011;54366;51.980;5.856;2022-09-12T14:21:00;3.47;;;3.17;;
67528;SDS011;54366;51.980;5.856;2022-09-12T14:23:36;3.00;;;2.80;;
67528;SDS011;54366;51.980;5.856;2022-09-12T14:26:08;2.60;;;2.40;;
67528;SDS011;54366;51.980;5.856;2022-09-12T14:28:40;2.53;;;2.00;;
67528;SDS011;54366;51.980;5.856;2022-09-12T14:33:47;2.60;;;2.30;;
67528;SDS011;54366;51.980;5.856;2022-09-12T14:39:23;2.83;;;2.55;;
67528;SDS011;54366;51.980;5.856;2022-09-12T14:42:11;2.50;;;2.30;;
67528;SDS011;54366;51.980;5.856;2022-09-12T14:44:42;2.45;;;2.20;;
67528;SDS011;54366;51.980;5.856;2022-09-12T14:47:39;1.60;;;1.50;;
67528;SDS011;54366;51.980;5.856;2022-09-12T14:50:13;2.08;;;1.70;;
67528;SDS011;54366;51.980;5.856;2022-09-12T14:53:03;1.73;;;1.63;;
67528;SDS011;54366;51.980;5.856;2022-09-12T14:55:33;1.60;;;1.50;;
67528;SDS011;54366;51.980;5.856;2022-09-12T15:00:52;2.00;;;1.90;;
67528;SDS011;54366;51.980;5.856;2022-09-12T15:03:26;1.90;;;1.80;;
67528;SDS011;54366;51.980;5.856;2022-09-12T15:05:57;1.70;;;1.60;;
67528;SDS011;54366;51.980;5.856;2022-09-12T15:08:25;1.95;;;1.55;;
67528;SDS011;54366;51.980;5.856;2022-09-12T15:10:51;1.60;;;1.50;;
67528;SDS011;54366;51.980;5.856;2022-09-12T15:13:19;1.98;;;1.80;;
67528;SDS011;54366;51.980;5.856;2022-09-12T15:15:48;1.77;;;1.67;;
67528;SDS011;54366;51.980;5.856;2022-09-12T15:18:16;1.98;;;1.70;;
67528;SDS011;54366;51.980;5.856;2022-09-12T15:20:44;2.75;;;1.83;;
67528;SDS011;54366;51.980;5.856;2022-09-12T15:23:16;1.98;;;1.88;;
67528;SDS011;54366;51.980;5.856;2022-09-12T15:25:45;1.60;;;1.50;;
67528;SDS011;54366;51.980;5.856;2022-09-12T15:28:14;1.90;;;1.60;;
67528;SDS011;54366;51.980;5.856;2022-09-12T15:30:42;3.05;;;1.50;;
67528;SDS011;54366;51.980;5.856;2022-09-12T15:33:09;1.75;;;1.65;;
67528;SDS011;54366;51.980;5.856;2022-09-12T15:35:36;1.60;;;1.50;;
67528;SDS011;54366;51.980;5.856;2022-09-12T15:38:03;1.70;;;1.60;;
67528;SDS011;54366;51.980;5.856;2022-09-12T15:40:30;2.47;;;2.00;;
67528;SDS011;54366;51.980;5.856;2022-09-12T15:42:56;2.00;;;1.85;;
67528;SDS011;54366;51.980;5.856;2022-09-12T15:45:23;3.40;;;2.20;;
67528;SDS011;54366;51.980;5.856;2022-09-12T15:47:52;2.05;;;1.95;;
67528;SDS011;54366;51.980;5.856;2022-09-12T15:50:19;1.65;;;1.55;;
67528;SDS011;54366;51.980;5.856;2022-09-12T15:52:45;2.13;;;2.03;;
67528;SDS011;54366;51.980;5.856;2022-09-12T15:55:16;3.92;;;2.17;;
67528;SDS011;54366;51.980;5.856;2022-09-12T15:57:44;2.20;;;2.00;;
67528;SDS011;54366;51.980;5.856;2022-09-12T16:00:11;2.25;;;2.15;;
67528;SDS011;54366;51.980;5.856;2022-09-12T16:02:38;2.20;;;2.00;;
67528;SDS011;54366;51.980;5.856;2022-09-12T16:05:05;1.80;;;1.70;;
67528;SDS011;54366;51.980;5.856;2022-09-12T16:07:35;2.03;;;1.80;;
67528;SDS011;54366;51.980;5.856;2022-09-12T16:10:01;2.10;;;1.88;;
67528;SDS011;54366;51.980;5.856;2022-09-12T16:12:27;2.00;;;1.90;;
67528;SDS011;54366;51.980;5.856;2022-09-12T16:14:54;2.08;;;1.92;;
67528;SDS011;54366;51.980;5.856;2022-09-12T16:17:20;2.40;;;1.80;;
67528;SDS011;54366;51.980;5.856;2022-09-12T16:19:46;2.78;;;2.20;;
67528;SDS011;54366;51.980;5.856;2022-09-12T16:22:12;1.95;;;1.85;;
67528;SDS011;54366;51.980;5.856;2022-09-12T16:24:38;2.70;;;2.50;;
67528;SDS011;54366;51.980;5.856;2022-09-12T16:27:05;2.92;;;2.70;;
67528;SDS011;54366;51.980;5.856;2022-09-12T16:29:31;2.65;;;2.45;;
67528;SDS011;54366;51.980;5.856;2022-09-12T16:31:57;2.50;;;2.30;;
67528;SDS011;54366;51.980;5.856;2022-09-12T16:34:24;2.17;;;2.08;;
67528;SDS011;54366;51.980;5.856;2022-09-12T16:36:50;2.60;;;2.40;;
67528;SDS011;54366;51.980;5.856;2022-09-12T16:39:17;3.45;;;2.72;;
67528;SDS011;54366;51.980;5.856;2022-09-12T16:41:43;3.08;;;2.80;;
67528;SDS011;54366;51.980;5.856;2022-09-12T16:44:10;3.17;;;2.08;;
67528;SDS011;54366;51.980;5.856;2022-09-12T16:46:36;2.33;;;2.13;;
67528;SDS011;54366;51.980;5.856;2022-09-12T16:49:03;2.60;;;2.40;;
67528;SDS011;54366;51.980;5.856;2022-09-12T16:51:32;3.63;;;2.30;;
67528;SDS011;54366;51.980;5.856;2022-09-12T16:54:00;2.33;;;2.22;;
67528;SDS011;54366;51.980;5.856;2022-09-12T16:56:27;2.20;;;2.10;;
67528;SDS011;54366;51.980;5.856;2022-09-12T16:58:53;2.53;;;2.15;;
67528;SDS011;54366;51.980;5.856;2022-09-12T17:01:21;2.58;;;2.30;;
67528;SDS011;54366;51.980;5.856;2022-09-12T17:03:52;2.42;;;2.22;;
67528;SDS011;54366;51.980;5.856;2022-09-12T17:06:19;2.05;;;1.95;;
67528;SDS011;54366;51.980;5.856;2022-09-12T17:08:47;2.40;;;1.77;;
67528;SDS011;54366;51.980;5.856;2022-09-12T17:13:52;2.70;;;2.45;;
67528;SDS011;54366;51.980;5.856;2022-09-12T17:16:20;2.60;;;2.00;;
67528;SDS011;54366;51.980;5.856;2022-09-12T17:18:47;2.63;;;1.90;;
67528;SDS011;54366;51.980;5.856;2022-09-12T17:21:13;2.20;;;2.00;;
67528;SDS011;54366;51.980;5.856;2022-09-12T17:23:40;2.88;;;2.10;;
67528;SDS011;54366;51.980;5.856;2022-09-12T17:26:07;2.55;;;2.00;;
67528;SDS011;54366;51.980;5.856;2022-09-12T17:28:34;2.28;;;2.08;;
67528;SDS011;54366;51.980;5.856;2022-09-12T17:31:02;3.38;;;2.22;;
67528;SDS011;54366;51.980;5.856;2022-09-12T17:33:31;2.35;;;2.20;;
67528;SDS011;54366;51.980;5.856;2022-09-12T17:36:05;2.05;;;1.95;;
67528;SDS011;54366;51.980;5.856;2022-09-12T17:38:34;2.33;;;2.13;;
67528;SDS011;54366;51.980;5.856;2022-09-12T17:41:06;1.90;;;1.70;;
67528;SDS011;54366;51.980;5.856;2022-09-12T17:43:39;3.13;;;2.35;;
67528;SDS011;54366;51.980;5.856;2022-09-12T17:46:05;2.40;;;2.20;;
67528;SDS011;54366;51.980;5.856;2022-09-12T17:48:33;3.45;;;2.00;;
67528;SDS011;54366;51.980;5.856;2022-09-12T17:51:06;2.00;;;1.90;;
67528;SDS011;54366;51.980;5.856;2022-09-12T17:53:33;2.05;;;1.85;;
67528;SDS011;54366;51.980;5.856;2022-09-12T17:56:00;2.45;;;2.25;;
67528;SDS011;54366;51.980;5.856;2022-09-12T17:58:28;2.33;;;2.22;;
67528;SDS011;54366;51.980;5.856;2022-09-12T18:01:05;2.45;;;2.30;;
67528;SDS011;54366;51.980;5.856;2022-09-12T18:03:53;2.55;;;2.20;;